createdAt,value
2023-05-25T00:00:10.940Z,44.96
2023-05-25T00:01:10.961Z,45.04
2023-05-25T00:02:11.010Z,45.03
2023-05-25T00:03:11.117Z,45.01
2023-05-25T00:04:11.175Z,45.03
2023-05-25T00:05:11.071Z,44.91
2023-05-25T00:06:11.114Z,45.02
2023-05-25T00:07:11.146Z,44.94
2023-05-25T00:08:11.173Z,45.03
2023-05-25T00:09:11.203Z,44.97
2023-05-25T00:10:11.239Z,44.96
2023-05-25T00:11:11.256Z,44.96
2023-05-25T00:12:11.283Z,44.97
2023-05-25T00:13:11.321Z,45.01
2023-05-25T00:14:11.338Z,44.97
2023-05-25T00:15:11.368Z,44.97
2023-05-25T00:16:11.397Z,44.96
2023-05-25T00:17:11.453Z,44.99
2023-05-25T00:18:11.449Z,44.99
2023-05-25T00:19:11.478Z,44.97
2023-05-25T00:20:11.554Z,44.92
2023-05-25T00:21:11.519Z,44.95
2023-05-25T00:22:11.556Z,44.90
2023-05-25T00:23:11.588Z,44.92
2023-05-25T00:24:11.610Z,44.98
2023-05-25T00:25:11.640Z,44.96
2023-05-25T00:26:11.668Z,44.91
2023-05-25T00:27:11.693Z,44.96
2023-05-25T00:28:11.798Z,44.93
2023-05-25T00:29:11.745Z,44.98
2023-05-25T00:30:11.762Z,44.91
2023-05-25T00:31:11.813Z,44.88
2023-05-25T00:32:11.821Z,44.81
2023-05-25T00:33:11.849Z,44.85
2023-05-25T00:34:11.888Z,44.85
2023-05-25T00:35:11.911Z,44.86
2023-05-25T00:36:11.929Z,44.92
2023-05-25T00:37:11.953Z,44.93
2023-05-25T00:38:11.972Z,44.83
2023-05-25T00:39:11.999Z,44.89
2023-05-25T00:40:12.033Z,44.88
2023-05-25T00:41:12.050Z,44.88
2023-05-25T00:42:12.065Z,44.81
2023-05-25T00:43:12.093Z,44.82
2023-05-25T00:44:12.114Z,44.93
2023-05-25T00:45:12.142Z,44.91
2023-05-25T00:46:12.193Z,44.85
2023-05-25T00:47:12.211Z,44.88
2023-05-25T00:48:12.232Z,44.92
2023-05-25T00:49:12.256Z,44.84
2023-05-25T00:50:12.287Z,44.88
2023-05-25T00:51:12.310Z,44.77
2023-05-25T00:52:12.335Z,44.90
2023-05-25T00:53:12.389Z,44.84
2023-05-25T00:54:12.373Z,44.90
2023-05-25T00:55:12.451Z,44.83
2023-05-25T00:56:12.430Z,44.87
2023-05-25T00:57:12.455Z,44.86
2023-05-25T00:58:12.488Z,44.84
2023-05-25T00:59:12.507Z,44.80
2023-05-25T01:00:12.535Z,44.84
2023-05-25T01:01:12.584Z,44.84
2023-05-25T01:02:12.617Z,44.82
2023-05-25T01:03:12.735Z,44.88
2023-05-25T01:04:12.689Z,44.87
2023-05-25T01:05:12.685Z,44.82
2023-05-25T01:06:12.712Z,44.80
2023-05-25T01:07:12.734Z,44.82
2023-05-25T01:08:12.760Z,44.86
2023-05-25T01:09:12.790Z,44.85
2023-05-25T01:10:12.816Z,44.81
2023-05-25T01:11:12.840Z,44.83
2023-05-25T01:12:12.870Z,44.85
2023-05-25T01:13:12.909Z,44.74
2023-05-25T01:14:12.937Z,44.82
2023-05-25T01:15:12.959Z,44.82
2023-05-25T01:16:13.072Z,44.87
2023-05-25T01:17:13.011Z,44.88
2023-05-25T01:18:13.045Z,44.76
2023-05-25T01:19:13.087Z,44.81
2023-05-25T01:20:13.212Z,44.77
2023-05-25T01:21:13.314Z,44.76
2023-05-25T01:22:13.179Z,44.80
2023-05-25T01:23:13.199Z,44.85
2023-05-25T01:24:13.257Z,44.79
2023-05-25T01:25:13.260Z,44.83
2023-05-25T01:26:13.286Z,44.76
2023-05-25T01:27:13.318Z,44.80
2023-05-25T01:28:13.349Z,44.78
2023-05-25T01:29:13.395Z,44.75
2023-05-25T01:30:13.426Z,44.78
2023-05-25T01:31:13.436Z,44.77
2023-05-25T01:32:13.549Z,44.74
2023-05-25T01:33:13.614Z,44.75
2023-05-25T01:34:13.529Z,44.71
2023-05-25T01:35:13.570Z,44.78
2023-05-25T01:36:13.586Z,44.77
2023-05-25T01:37:13.654Z,44.75
2023-05-25T01:38:13.664Z,44.77
2023-05-25T01:39:13.684Z,44.82
2023-05-25T01:40:13.718Z,44.75
2023-05-25T01:41:13.750Z,44.77
2023-05-25T01:42:13.780Z,44.74
2023-05-25T01:43:13.809Z,44.74
2023-05-25T01:44:13.830Z,44.74
2023-05-25T01:45:13.875Z,44.73
2023-05-25T01:46:13.963Z,44.68
2023-05-25T01:47:13.941Z,44.73
2023-05-25T01:48:13.995Z,44.73
2023-05-25T01:49:14.009Z,44.75
2023-05-25T01:50:14.023Z,44.68
2023-05-25T01:51:14.047Z,44.69
2023-05-25T01:52:14.141Z,44.70
2023-05-25T01:53:14.113Z,44.67
2023-05-25T01:54:14.154Z,44.73
2023-05-25T01:55:14.161Z,44.62
2023-05-25T01:56:14.193Z,44.67
2023-05-25T01:57:14.206Z,44.64
2023-05-25T01:58:14.236Z,44.68
2023-05-25T01:59:14.264Z,44.69
2023-05-25T02:00:14.325Z,44.66
2023-05-25T02:01:14.379Z,44.71
2023-05-25T02:02:14.350Z,44.63
2023-05-25T02:03:14.383Z,44.60
2023-05-25T02:04:14.440Z,44.69
2023-05-25T02:05:14.444Z,44.65
2023-05-25T02:06:14.475Z,44.73
2023-05-25T02:07:14.508Z,44.67
2023-05-25T02:08:14.547Z,44.68
2023-05-25T02:09:14.568Z,44.68
2023-05-25T02:10:14.604Z,44.66
2023-05-25T02:11:14.678Z,44.73
2023-05-25T02:12:14.669Z,44.65
2023-05-25T02:13:14.744Z,44.67
2023-05-25T02:14:14.723Z,44.64
2023-05-25T02:15:14.752Z,44.74
2023-05-25T02:16:14.844Z,44.64
2023-05-25T02:17:14.826Z,44.60
2023-05-25T02:18:14.855Z,44.68
2023-05-25T02:19:14.894Z,44.60
2023-05-25T02:20:14.968Z,44.58
2023-05-25T02:21:14.945Z,44.67
2023-05-25T02:22:14.992Z,44.73
2023-05-25T02:23:15.016Z,44.60
2023-05-25T02:24:15.040Z,44.64
2023-05-25T02:25:15.075Z,44.64
2023-05-25T02:26:15.111Z,44.66
2023-05-25T02:27:15.152Z,44.59
2023-05-25T02:28:15.202Z,44.62
2023-05-25T02:29:15.203Z,44.62
2023-05-25T02:30:15.236Z,44.54
2023-05-25T02:31:15.324Z,44.70
2023-05-25T02:32:15.292Z,44.61
2023-05-25T02:33:15.339Z,44.62
2023-05-25T02:34:15.354Z,44.66
2023-05-25T02:35:15.380Z,44.58
2023-05-25T02:36:15.418Z,44.64
2023-05-25T02:37:15.442Z,44.59
2023-05-25T02:38:15.479Z,44.58
2023-05-25T02:39:15.504Z,44.60
2023-05-25T02:40:15.516Z,44.56
2023-05-25T02:41:15.549Z,44.66
2023-05-25T02:42:15.581Z,44.66
2023-05-25T02:43:15.629Z,44.57
2023-05-25T02:44:15.642Z,44.61
2023-05-25T02:45:15.673Z,44.61
2023-05-25T02:46:15.865Z,44.55
2023-05-25T02:47:15.730Z,44.56
2023-05-25T02:48:15.767Z,44.53
2023-05-25T02:49:15.792Z,44.58
2023-05-25T02:50:15.824Z,44.60
2023-05-25T02:51:15.865Z,44.53
2023-05-25T02:52:15.877Z,44.61
2023-05-25T02:53:15.909Z,44.55
2023-05-25T02:54:15.943Z,44.57
2023-05-25T02:55:15.971Z,44.52
2023-05-25T02:56:16.003Z,44.52
2023-05-25T02:57:16.038Z,44.54
2023-05-25T02:58:16.077Z,44.50
2023-05-25T02:59:16.101Z,44.53
2023-05-25T03:00:16.116Z,44.54
2023-05-25T03:01:16.185Z,44.51
2023-05-25T03:02:16.193Z,44.54
2023-05-25T03:03:16.272Z,44.56
2023-05-25T03:04:16.262Z,44.54
2023-05-25T03:05:16.286Z,44.49
2023-05-25T03:06:16.303Z,44.53
2023-05-25T03:07:16.346Z,44.51
2023-05-25T03:08:16.365Z,44.50
2023-05-25T03:09:16.393Z,44.57
2023-05-25T03:10:16.442Z,44.55
2023-05-25T03:11:16.457Z,44.55
2023-05-25T03:12:16.485Z,44.52
2023-05-25T03:13:16.519Z,44.55
2023-05-25T03:14:16.544Z,44.59
2023-05-25T03:15:16.581Z,44.57
2023-05-25T03:16:16.639Z,44.55
2023-05-25T03:17:16.695Z,44.56
2023-05-25T03:18:16.672Z,44.52
2023-05-25T03:19:16.684Z,44.55
2023-05-25T03:20:16.755Z,44.53
2023-05-25T03:21:16.731Z,44.54
2023-05-25T03:22:16.753Z,44.44
2023-05-25T03:23:16.785Z,44.50
2023-05-25T03:24:16.805Z,44.53
2023-05-25T03:25:16.834Z,44.49
2023-05-25T03:26:16.860Z,44.46
2023-05-25T03:27:16.911Z,44.47
2023-05-25T03:28:16.929Z,44.50
2023-05-25T03:29:16.951Z,44.46
2023-05-25T03:30:16.985Z,44.51
2023-05-25T03:31:17.013Z,44.50
2023-05-25T03:32:17.161Z,44.49
2023-05-25T03:33:17.075Z,44.50
2023-05-25T03:34:17.120Z,44.45
2023-05-25T03:35:17.142Z,44.51
2023-05-25T03:36:17.177Z,44.50
2023-05-25T03:37:17.209Z,44.46
2023-05-25T03:38:17.237Z,44.48
2023-05-25T03:39:17.266Z,44.49
2023-05-25T03:40:17.304Z,44.51
2023-05-25T03:41:17.333Z,44.51
2023-05-25T03:42:17.367Z,44.45
2023-05-25T03:43:17.408Z,44.41
2023-05-25T03:44:17.438Z,44.52
2023-05-25T03:45:17.465Z,44.49
2023-05-25T03:46:18.546Z,44.41
2023-05-25T03:47:17.576Z,44.46
2023-05-25T03:48:17.565Z,44.41
2023-05-25T03:49:17.587Z,44.49
2023-05-25T03:50:17.615Z,44.48
2023-05-25T03:51:17.648Z,44.45
2023-05-25T03:52:17.680Z,44.43
2023-05-25T03:53:17.707Z,44.46
2023-05-25T03:54:17.738Z,44.45
2023-05-25T03:55:17.754Z,44.42
2023-05-25T03:56:17.782Z,44.45
2023-05-25T03:57:17.813Z,44.43
2023-05-25T03:58:17.837Z,44.38
2023-05-25T03:59:17.870Z,44.42
2023-05-25T04:00:17.892Z,44.39
2023-05-25T04:01:17.929Z,44.48
2023-05-25T04:02:18.041Z,44.41
2023-05-25T04:03:18.120Z,44.41
2023-05-25T04:04:18.065Z,44.38
2023-05-25T04:05:18.062Z,44.42
2023-05-25T04:06:18.094Z,44.38
2023-05-25T04:07:18.118Z,44.41
2023-05-25T04:08:18.173Z,44.41
2023-05-25T04:09:18.193Z,44.41
2023-05-25T04:10:18.217Z,44.41
2023-05-25T04:11:18.254Z,44.41
2023-05-25T04:12:18.294Z,44.38
2023-05-25T04:13:18.323Z,44.36
2023-05-25T04:14:18.352Z,44.41
2023-05-25T04:15:18.385Z,44.43
2023-05-25T04:16:18.463Z,44.37
2023-05-25T04:17:18.437Z,44.47
2023-05-25T04:18:18.473Z,44.39
2023-05-25T04:19:18.507Z,44.35
2023-05-25T04:20:18.583Z,44.38
2023-05-25T04:21:18.562Z,44.39
2023-05-25T04:22:18.597Z,44.36
2023-05-25T04:23:18.624Z,44.37
2023-05-25T04:24:18.660Z,44.42
2023-05-25T04:25:18.687Z,44.36
2023-05-25T04:26:18.720Z,44.44
2023-05-25T04:27:18.753Z,44.36
2023-05-25T04:28:18.806Z,44.36
2023-05-25T04:29:18.826Z,44.33
2023-05-25T04:30:18.863Z,44.38
2023-05-25T04:31:18.957Z,44.38
2023-05-25T04:32:18.966Z,44.35
2023-05-25T04:33:18.955Z,44.35
2023-05-25T04:34:18.998Z,44.39
2023-05-25T04:35:19.025Z,44.33
2023-05-25T04:36:19.061Z,44.36
2023-05-25T04:37:19.088Z,44.31
2023-05-25T04:38:19.124Z,44.31
2023-05-25T04:39:19.148Z,44.30
2023-05-25T04:40:19.176Z,44.31
2023-05-25T04:41:19.223Z,44.35
2023-05-25T04:42:19.244Z,44.29
2023-05-25T04:43:19.286Z,44.34
2023-05-25T04:44:19.323Z,44.35
2023-05-25T04:45:19.352Z,44.32
2023-05-25T04:46:19.408Z,44.30
2023-05-25T04:47:19.409Z,44.29
2023-05-25T04:48:19.436Z,44.34
2023-05-25T04:49:19.530Z,44.34
2023-05-25T04:50:19.513Z,44.24
2023-05-25T04:51:20.112Z,44.22
2023-05-25T04:52:19.575Z,44.29
2023-05-25T04:53:19.599Z,44.34
2023-05-25T04:54:19.648Z,44.33
2023-05-25T04:55:19.674Z,44.30
2023-05-25T04:56:19.721Z,44.33
2023-05-25T04:57:19.747Z,44.39
2023-05-25T04:58:19.777Z,44.29
2023-05-25T04:59:19.816Z,44.31
2023-05-25T05:00:19.848Z,44.36
2023-05-25T05:01:19.929Z,44.64
2023-05-25T05:02:19.953Z,44.58
2023-05-25T05:03:20.053Z,45.06
2023-05-25T05:04:20.026Z,44.86
2023-05-25T05:05:20.053Z,44.97
2023-05-25T05:06:20.087Z,44.86
2023-05-25T05:07:20.125Z,45.03
2023-05-25T05:08:20.168Z,45.08
2023-05-25T05:09:20.240Z,45.07
2023-05-25T05:10:20.263Z,45.48
2023-05-25T05:11:20.310Z,46.15
2023-05-25T05:12:20.374Z,46.00
2023-05-25T05:13:20.433Z,45.79
2023-05-25T05:14:20.498Z,45.70
2023-05-25T05:15:20.556Z,46.09
2023-05-25T05:16:20.610Z,45.79
2023-05-25T05:17:20.660Z,45.93
2023-05-25T05:18:20.714Z,46.11
2023-05-25T05:19:20.776Z,46.91
2023-05-25T05:20:20.854Z,46.23
2023-05-25T05:21:22.819Z,46.01
2023-05-25T05:22:21.053Z,46.37
2023-05-25T05:23:21.090Z,47.06
2023-05-25T05:24:21.554Z,47.18
2023-05-25T05:25:21.124Z,46.97
2023-05-25T05:26:21.150Z,47.20
2023-05-25T05:27:21.146Z,47.51
2023-05-25T05:28:21.148Z,47.73
2023-05-25T05:29:21.169Z,47.54
2023-05-25T05:30:21.188Z,46.98
2023-05-25T05:31:21.230Z,46.70
2023-05-25T05:32:21.277Z,46.83
2023-05-25T05:33:21.440Z,46.62
2023-05-25T05:34:21.396Z,46.29
2023-05-25T05:35:21.406Z,46.48
2023-05-25T05:36:22.944Z,46.63
2023-05-25T05:37:21.498Z,46.61
2023-05-25T05:38:21.553Z,46.48
2023-05-25T05:39:21.608Z,46.33
2023-05-25T05:40:21.670Z,46.12
2023-05-25T05:41:21.718Z,46.11
2023-05-25T05:42:22.503Z,46.15
2023-05-25T05:43:21.734Z,46.02
2023-05-25T05:44:21.769Z,45.93
2023-05-25T05:45:21.820Z,45.96
2023-05-25T05:46:21.879Z,46.02
2023-05-25T05:47:21.902Z,45.98
2023-05-25T05:48:24.525Z,45.80
2023-05-25T05:49:22.941Z,45.88
2023-05-25T05:50:21.936Z,46.22
2023-05-25T05:51:21.923Z,46.83
2023-05-25T05:52:21.932Z,46.97
2023-05-25T05:53:21.904Z,46.96
2023-05-25T05:54:21.881Z,46.80
2023-05-25T05:55:21.867Z,46.82
2023-05-25T05:56:21.859Z,46.77
2023-05-25T05:57:21.886Z,46.51
2023-05-25T05:58:21.829Z,46.52
2023-05-25T05:59:22.547Z,46.52
2023-05-25T06:00:22.045Z,46.47
2023-05-25T06:01:22.077Z,46.49
2023-05-25T06:02:22.133Z,46.54
2023-05-25T06:03:22.093Z,46.56
2023-05-25T06:04:22.022Z,46.46
2023-05-25T06:05:22.031Z,46.59
2023-05-25T06:06:21.989Z,46.63
2023-05-25T06:07:21.970Z,46.48
2023-05-25T06:08:21.966Z,46.48
2023-05-25T06:09:21.936Z,46.45
2023-05-25T06:10:21.922Z,46.24
2023-05-25T06:11:21.911Z,46.04
2023-05-25T06:12:21.896Z,45.96
2023-05-25T06:13:21.902Z,45.93
2023-05-25T06:14:22.042Z,45.92
2023-05-25T06:15:21.984Z,45.85
2023-05-25T06:16:22.047Z,46.34
2023-05-25T06:17:22.074Z,46.19
2023-05-25T06:18:22.098Z,46.18
2023-05-25T06:19:22.132Z,46.17
2023-05-25T06:20:22.174Z,46.21
2023-05-25T06:21:22.107Z,46.39
2023-05-25T06:22:22.096Z,46.97
2023-05-25T06:23:22.104Z,47.76
2023-05-25T06:24:22.122Z,48.36
2023-05-25T06:25:22.122Z,48.54
2023-05-25T06:26:22.144Z,47.99
2023-05-25T06:27:22.136Z,47.88
2023-05-25T06:28:22.133Z,47.76
2023-05-25T06:29:22.137Z,47.65
2023-05-25T06:30:22.120Z,47.12
2023-05-25T06:31:22.140Z,46.99
2023-05-25T06:32:22.113Z,46.95
2023-05-25T06:33:22.129Z,46.98
2023-05-25T06:34:22.971Z,46.80
2023-05-25T06:35:22.230Z,46.87
2023-05-25T06:36:22.291Z,47.02
2023-05-25T06:37:22.317Z,47.45
2023-05-25T06:38:22.365Z,46.97
2023-05-25T06:39:22.447Z,54.33
2023-05-25T06:40:22.458Z,46.97
2023-05-25T06:41:22.502Z,47.11
2023-05-25T06:42:22.537Z,47.48
2023-05-25T06:43:22.593Z,47.93
2023-05-25T06:44:22.640Z,47.74
2023-05-25T06:45:22.681Z,47.28
2023-05-25T06:46:22.882Z,46.75
2023-05-25T06:47:22.793Z,46.24
2023-05-25T06:48:22.800Z,46.28
2023-05-25T06:49:22.854Z,46.20
2023-05-25T06:50:22.891Z,46.24
2023-05-25T06:51:22.923Z,46.22
2023-05-25T06:52:23.557Z,46.36
2023-05-25T06:53:23.007Z,46.62
2023-05-25T06:54:23.046Z,47.20
2023-05-25T06:55:23.079Z,48.96
2023-05-25T06:56:23.144Z,49.01
2023-05-25T06:57:23.187Z,48.80
2023-05-25T06:58:23.247Z,48.51
2023-05-25T06:59:23.317Z,48.37
2023-05-25T07:00:23.365Z,48.15
2023-05-25T07:01:23.474Z,48.11
2023-05-25T07:02:23.509Z,48.02
2023-05-25T07:03:23.532Z,47.98
2023-05-25T07:04:23.601Z,48.05
2023-05-25T07:05:23.687Z,48.04
2023-05-25T07:06:23.706Z,48.00
2023-05-25T07:07:23.751Z,47.96
2023-05-25T07:08:23.812Z,47.92
2023-05-25T07:09:23.873Z,47.83
2023-05-25T07:10:23.925Z,47.59
2023-05-25T07:11:23.969Z,47.57
2023-05-25T07:12:24.012Z,47.60
2023-05-25T07:13:24.055Z,47.48
2023-05-25T07:14:24.108Z,47.61
2023-05-25T07:15:24.166Z,47.72
2023-05-25T07:16:24.253Z,48.65
2023-05-25T07:17:24.276Z,48.58
2023-05-25T07:18:24.251Z,48.61
2023-05-25T07:19:24.262Z,48.67
2023-05-25T07:20:24.354Z,48.35
2023-05-25T07:21:24.298Z,48.17
2023-05-25T07:22:24.354Z,48.05
2023-05-25T07:23:24.345Z,47.45
2023-05-25T07:24:24.368Z,47.36
2023-05-25T07:25:24.333Z,47.95
2023-05-25T07:26:24.374Z,48.21
2023-05-25T07:27:24.314Z,47.86
2023-05-25T07:28:24.304Z,47.76
2023-05-25T07:29:24.282Z,47.64
2023-05-25T07:30:24.314Z,47.40
2023-05-25T07:31:24.292Z,47.51
2023-05-25T07:32:24.318Z,47.36
2023-05-25T07:33:24.389Z,47.40
2023-05-25T07:34:25.757Z,47.39
2023-05-25T07:35:25.091Z,47.58
2023-05-25T07:36:24.344Z,47.38
2023-05-25T07:37:24.346Z,47.10
2023-05-25T07:38:24.316Z,47.98
2023-05-25T07:39:24.298Z,46.94
2023-05-25T07:40:24.283Z,46.99
2023-05-25T07:41:24.304Z,46.56
2023-05-25T07:42:24.264Z,46.76
2023-05-25T07:43:24.250Z,45.74
2023-05-25T07:44:24.231Z,47.04
2023-05-25T07:45:24.267Z,46.96
2023-05-25T07:46:24.337Z,46.88
2023-05-25T07:47:24.428Z,46.96
2023-05-25T07:48:24.424Z,46.95
2023-05-25T07:49:24.420Z,46.97
2023-05-25T07:50:24.412Z,46.99
2023-05-25T07:51:25.089Z,46.99
2023-05-25T07:52:24.388Z,46.96
2023-05-25T07:53:24.368Z,47.18
2023-05-25T07:54:24.378Z,47.11
2023-05-25T07:55:24.352Z,47.14
2023-05-25T07:56:24.341Z,47.15
2023-05-25T07:57:24.329Z,46.99
2023-05-25T07:58:24.351Z,47.00
2023-05-25T07:59:24.411Z,47.02
2023-05-25T08:00:24.502Z,47.10
2023-05-25T08:01:26.796Z,47.01
2023-05-25T08:02:24.755Z,47.10
2023-05-25T08:03:39.961Z,47.07
2023-05-25T08:04:25.783Z,46.98
2023-05-25T08:05:24.699Z,46.90
2023-05-25T08:06:24.691Z,46.91
2023-05-25T08:07:24.674Z,46.90
2023-05-25T08:08:24.695Z,47.18
2023-05-25T08:09:24.659Z,46.91
2023-05-25T08:10:24.650Z,46.86
2023-05-25T08:11:24.662Z,47.17
2023-05-25T08:13:25.708Z,47.02
2023-05-25T08:14:24.670Z,46.92
2023-05-25T08:15:24.665Z,46.86
2023-05-25T08:16:24.731Z,46.80
2023-05-25T08:17:24.743Z,46.15
2023-05-25T08:18:24.715Z,46.48
2023-05-25T08:19:25.105Z,45.94
2023-05-25T08:20:24.647Z,46.23
2023-05-25T08:21:24.643Z,45.92
2023-05-25T08:22:24.635Z,45.80
2023-05-25T08:23:24.633Z,45.52
2023-05-25T08:24:24.611Z,45.34
2023-05-25T08:25:24.608Z,44.33
2023-05-25T08:26:41.243Z,43.61
2023-05-25T08:27:25.564Z,43.71
2023-05-25T08:28:26.106Z,43.87
2023-05-25T08:29:24.530Z,43.85
2023-05-25T08:30:24.544Z,43.84
2023-05-25T08:31:24.518Z,43.81
2023-05-25T08:32:24.520Z,43.91
2023-05-25T08:33:25.871Z,44.29
2023-05-25T08:34:24.450Z,44.75
2023-05-25T08:35:24.433Z,45.07
2023-05-25T08:36:24.417Z,44.91
2023-05-25T08:37:24.404Z,45.70
2023-05-25T08:38:24.404Z,46.00
2023-05-25T08:39:24.623Z,46.02
2023-05-25T08:40:24.423Z,46.20
2023-05-25T08:41:24.469Z,46.23
2023-05-25T08:42:24.503Z,46.49
2023-05-25T08:43:24.581Z,46.53
2023-05-25T08:44:24.536Z,46.64
2023-05-25T08:45:35.300Z,46.47
2023-05-25T08:46:25.513Z,46.25
2023-05-25T08:47:24.547Z,47.05
2023-05-25T08:48:39.380Z,52.87
2023-05-25T08:49:25.594Z,47.66
2023-05-25T08:50:24.482Z,54.37
2023-05-25T08:51:24.467Z,46.11
2023-05-25T08:52:24.439Z,45.43
2023-05-25T08:53:24.426Z,44.89
2023-05-25T08:54:24.400Z,44.80
2023-05-25T08:55:24.374Z,44.78
2023-05-25T08:56:24.357Z,47.09
2023-05-25T08:57:24.307Z,45.45
2023-05-25T08:58:24.274Z,44.82
2023-05-25T08:59:24.319Z,44.69
2023-05-25T09:00:24.229Z,44.52
2023-05-25T09:01:24.361Z,44.57
2023-05-25T09:02:24.276Z,44.47
2023-05-25T09:03:24.205Z,44.51
2023-05-25T09:04:24.093Z,44.53
2023-05-25T09:05:24.068Z,44.45
2023-05-25T09:06:24.025Z,44.53
2023-05-25T09:07:23.995Z,44.54
2023-05-25T09:08:24.000Z,44.57
2023-05-25T09:09:23.927Z,44.52
2023-05-25T09:10:23.889Z,44.43
2023-05-25T09:11:35.940Z,44.44
2023-05-25T09:12:24.821Z,44.45
2023-05-25T09:13:23.816Z,44.47
2023-05-25T09:14:23.764Z,44.49
2023-05-25T09:15:23.750Z,45.63
2023-05-25T09:16:23.726Z,45.39
2023-05-25T09:17:23.658Z,44.97
2023-05-25T09:18:23.732Z,44.97
2023-05-25T09:19:23.618Z,44.81
2023-05-25T09:20:23.595Z,44.68
2023-05-25T09:21:23.550Z,44.71
2023-05-25T09:22:23.518Z,44.84
2023-05-25T09:23:23.489Z,44.84
2023-05-25T09:24:23.456Z,45.19
2023-05-25T09:25:23.449Z,44.93
2023-05-25T09:26:23.417Z,45.01
2023-05-25T09:27:23.374Z,44.79
2023-05-25T09:28:26.471Z,44.70
2023-05-25T09:29:23.297Z,44.71
2023-05-25T09:30:23.288Z,44.91
2023-05-25T09:31:23.243Z,44.79
2023-05-25T09:32:23.277Z,44.77
2023-05-25T09:33:23.178Z,44.88
2023-05-25T09:34:23.123Z,44.76
2023-05-25T09:35:23.093Z,44.73
2023-05-25T09:36:23.326Z,44.76
2023-05-25T09:37:23.210Z,44.81
2023-05-25T09:38:23.347Z,44.78
2023-05-25T09:39:23.105Z,44.84
2023-05-25T09:40:22.928Z,44.82
2023-05-25T09:41:22.896Z,44.81
2023-05-25T09:42:22.862Z,44.77
2023-05-25T09:43:40.157Z,44.78
2023-05-25T09:44:23.788Z,44.80
2023-05-25T09:45:22.750Z,44.77
2023-05-25T09:46:22.743Z,44.82
2023-05-25T09:47:22.764Z,44.82
2023-05-25T09:48:22.677Z,44.82
2023-05-25T09:49:22.633Z,44.75
2023-05-25T09:50:22.579Z,44.73
2023-05-25T09:51:22.555Z,44.87
2023-05-25T09:52:22.542Z,44.78
2023-05-25T09:53:22.511Z,44.89
2023-05-25T09:54:22.458Z,44.79
2023-05-25T09:55:22.438Z,44.78
2023-05-25T09:56:22.419Z,44.82
2023-05-25T09:57:22.372Z,44.83
2023-05-25T09:58:22.419Z,44.80
2023-05-25T09:59:22.310Z,44.80
2023-05-25T10:00:22.269Z,44.82
2023-05-25T10:01:22.307Z,44.78
2023-05-25T10:02:22.286Z,44.80
2023-05-25T10:03:22.167Z,44.79
2023-05-25T10:04:22.210Z,44.76
2023-05-25T10:05:22.107Z,44.80
2023-05-25T10:06:22.074Z,46.08
2023-05-25T10:07:22.050Z,46.11
2023-05-25T10:08:22.063Z,45.63
2023-05-25T10:09:22.023Z,45.55
2023-05-25T10:10:21.975Z,45.57
2023-05-25T10:11:21.978Z,45.20
2023-05-25T10:12:21.986Z,45.48
2023-05-25T10:13:22.089Z,45.78
2023-05-25T10:14:22.033Z,45.19
2023-05-25T10:15:22.031Z,45.59
2023-05-25T10:16:22.080Z,45.40
2023-05-25T10:17:22.632Z,45.08
2023-05-25T10:18:22.044Z,44.94
2023-05-25T10:19:22.225Z,45.14
2023-05-25T10:20:22.087Z,44.83
2023-05-25T10:21:22.028Z,44.90
2023-05-25T10:22:22.078Z,44.98
2023-05-25T10:23:21.975Z,45.01
2023-05-25T10:24:21.955Z,44.97
2023-05-25T10:25:21.951Z,44.93
2023-05-25T10:26:21.924Z,45.00
2023-05-25T10:27:27.013Z,44.98
2023-05-25T10:28:22.833Z,44.93
2023-05-25T10:29:21.792Z,44.99
2023-05-25T10:30:21.755Z,44.94
2023-05-25T10:31:21.770Z,45.02
2023-05-25T10:32:21.732Z,45.06
2023-05-25T10:33:21.726Z,45.12
2023-05-25T10:34:21.750Z,45.15
2023-05-25T10:35:21.607Z,45.15
2023-05-25T10:36:21.581Z,45.16
2023-05-25T10:37:21.559Z,45.26
2023-05-25T10:38:21.535Z,45.18
2023-05-25T10:39:21.494Z,45.09
2023-05-25T10:40:21.459Z,45.01
2023-05-25T10:41:21.428Z,45.03
2023-05-25T10:42:21.379Z,44.95
2023-05-25T10:43:21.348Z,44.83
2023-05-25T10:44:21.310Z,45.12
2023-05-25T10:45:21.299Z,45.03
2023-05-25T10:46:21.292Z,45.34
2023-05-25T10:47:21.267Z,45.55
2023-05-25T10:48:21.187Z,45.55
2023-05-25T10:49:21.185Z,45.30
2023-05-25T10:50:21.161Z,45.24
2023-05-25T10:51:21.139Z,45.90
2023-05-25T10:52:21.107Z,45.39
2023-05-25T10:53:21.158Z,45.18
2023-05-25T10:54:21.059Z,45.49
2023-05-25T10:55:21.022Z,45.51
2023-05-25T10:56:21.031Z,45.66
2023-05-25T10:57:21.032Z,46.14
2023-05-25T10:58:21.037Z,46.14
2023-05-25T10:59:21.034Z,46.23
2023-05-25T11:00:21.060Z,46.68
2023-05-25T11:01:21.221Z,46.29
2023-05-25T11:02:21.081Z,46.29
2023-05-25T11:03:21.031Z,45.96
2023-05-25T11:04:21.164Z,46.36
2023-05-25T11:05:21.001Z,46.59
2023-05-25T11:06:20.970Z,46.56
2023-05-25T11:07:20.975Z,46.65
2023-05-25T11:08:20.952Z,46.48
2023-05-25T11:09:20.981Z,46.65
2023-05-25T11:10:20.985Z,46.84
2023-05-25T11:11:21.019Z,46.87
2023-05-25T11:12:20.997Z,46.92
2023-05-25T11:13:20.985Z,46.91
2023-05-25T11:14:20.997Z,47.09
2023-05-25T11:15:20.965Z,46.96
2023-05-25T11:16:21.068Z,46.57
2023-05-25T11:17:21.005Z,46.51
2023-05-25T11:18:20.890Z,46.23
2023-05-25T11:19:20.865Z,46.05
2023-05-25T11:20:20.887Z,45.94
2023-05-25T11:21:20.780Z,45.82
2023-05-25T11:22:20.847Z,45.65
2023-05-25T11:23:20.833Z,45.57
2023-05-25T11:24:20.778Z,45.47
2023-05-25T11:25:20.687Z,45.37
2023-05-25T11:26:20.679Z,45.30
2023-05-25T11:27:20.634Z,45.25
2023-05-25T11:28:20.612Z,45.28
2023-05-25T11:29:20.603Z,45.27
2023-05-25T11:30:20.598Z,45.27
2023-05-25T11:31:20.593Z,45.25
2023-05-25T11:32:20.575Z,45.26
2023-05-25T11:33:20.528Z,45.17
2023-05-25T11:34:20.494Z,45.25
2023-05-25T11:35:20.448Z,45.59
2023-05-25T11:36:20.549Z,45.62
2023-05-25T11:37:20.386Z,45.67
2023-05-25T11:38:20.345Z,45.75
2023-05-25T11:39:22.946Z,45.77
2023-05-25T11:40:20.296Z,45.71
2023-05-25T11:41:20.244Z,45.62
2023-05-25T11:42:20.174Z,45.52
2023-05-25T11:43:20.132Z,45.51
2023-05-25T11:44:20.096Z,45.79
2023-05-25T11:45:20.048Z,45.76
2023-05-25T11:46:20.023Z,46.02
2023-05-25T11:47:19.972Z,45.88
2023-05-25T11:48:19.958Z,45.93
2023-05-25T11:49:19.888Z,45.90
2023-05-25T11:50:19.930Z,46.03
2023-05-25T11:51:19.782Z,46.05
2023-05-25T11:52:19.767Z,46.13
2023-05-25T11:53:19.712Z,45.98
2023-05-25T11:54:19.670Z,45.98
2023-05-25T11:55:19.622Z,45.91
2023-05-25T11:56:33.703Z,45.75
2023-05-25T11:57:20.536Z,45.70
2023-05-25T11:58:19.472Z,45.72
2023-05-25T11:59:19.446Z,45.94
2023-05-25T12:00:19.412Z,45.80
2023-05-25T12:01:19.352Z,45.94
2023-05-25T12:02:19.331Z,46.13
2023-05-25T12:03:19.406Z,46.24
2023-05-25T12:04:20.063Z,46.61
2023-05-25T12:05:19.279Z,46.55
2023-05-25T12:06:19.204Z,46.40
2023-05-25T12:07:19.176Z,46.46
2023-05-25T12:08:20.133Z,46.55
2023-05-25T12:09:19.102Z,46.75
2023-05-25T12:10:19.096Z,46.79
2023-05-25T12:11:19.023Z,46.95
2023-05-25T12:12:18.965Z,47.36
2023-05-25T12:13:18.946Z,47.22
2023-05-25T12:14:18.888Z,47.33
2023-05-25T12:15:20.717Z,47.38
2023-05-25T12:16:18.848Z,47.29
2023-05-25T12:17:18.810Z,47.47
2023-05-25T12:18:18.720Z,47.24
2023-05-25T12:19:18.677Z,47.17
2023-05-25T12:20:18.736Z,47.37
2023-05-25T12:21:18.693Z,47.33
2023-05-25T12:22:18.681Z,47.71
2023-05-25T12:23:18.664Z,47.60
2023-05-25T12:24:18.656Z,47.60
2023-05-25T12:25:18.648Z,48.26
2023-05-25T12:26:19.059Z,48.11
2023-05-25T12:27:18.624Z,47.80
2023-05-25T12:28:18.622Z,48.37
2023-05-25T12:29:18.606Z,48.17
2023-05-25T12:30:18.564Z,47.90
2023-05-25T12:31:18.563Z,47.27
2023-05-25T12:32:18.557Z,47.17
2023-05-25T12:33:18.608Z,47.06
2023-05-25T12:34:18.564Z,47.04
2023-05-25T12:35:18.545Z,47.01
2023-05-25T12:36:18.525Z,47.00
2023-05-25T12:37:18.492Z,47.54
2023-05-25T12:38:18.519Z,48.55
2023-05-25T12:39:18.449Z,48.23
2023-05-25T12:40:18.444Z,47.61
2023-05-25T12:41:18.397Z,48.24
2023-05-25T12:42:18.414Z,47.64
2023-05-25T12:43:18.324Z,47.39
2023-05-25T12:44:18.295Z,47.69
2023-05-25T12:45:18.273Z,47.71
2023-05-25T12:46:18.325Z,47.70
2023-05-25T12:47:18.256Z,47.77
2023-05-25T12:48:18.294Z,47.65
2023-05-25T12:49:18.242Z,47.48
2023-05-25T12:50:18.219Z,48.04
2023-05-25T12:51:18.205Z,47.99
2023-05-25T12:52:18.194Z,48.68
2023-05-25T12:53:18.199Z,48.65